Time;durP1;ratioP1;P1;durP2;ratioP2;P2;SDS_P1;SDS_P2;PMS_P1;PMS_P2;Temp;Humidity;BMP_temperature;BMP_pressure;BME280_temperature;BME280_humidity;BME280_pressure;Samples;Min_cycle;Max_cycle;Signal;HPM_P1;HPM_P2
2024/02/27 00:02:20;;;;;;;;;;;;;;;;;;137264;1271;22920;-77
2024/02/27 00:05:22;;;;;;;;;;;;;;;;;;137254;1270;22831;-78
2024/02/27 00:08:23;;;;;;;;;;;;;;;;;;137621;1270;22523;-80
2024/02/27 00:11:24;;;;;;;;;;;;;;;;;;137411;1267;22533;-78
2024/02/27 00:14:25;;;;;;;;;;;;;;;;;;137226;1270;22897;-79
2024/02/27 00:17:26;;;;;;;;;;;;;;;;;;137649;1270;22533;-79
2024/02/27 00:20:27;;;;;;;;;;;;;;;;;;137706;1260;22499;-80
2024/02/27 00:23:29;;;;;;;;;;;;;;;;;;137896;1270;22354;-79
2024/02/27 00:26:30;;;;;;;;;;;;;;;;;;137170;1270;22932;-79
2024/02/27 00:29:31;;;;;;;;;;;;;;;;;;137813;1271;22516;-79
2024/02/27 00:32:33;;;;;;;;;;;;;;;;;;137090;1270;22690;-79
2024/02/27 00:35:35;;;;;;;;;;;;;;;;;;137077;1270;23071;-79
2024/02/27 00:38:36;;;;;;;;;;;;;;;;;;137801;1270;22621;-79
2024/02/27 00:41:37;;;;;;;;;;;;;;;;;;137271;1270;22533;-79
2024/02/27 00:44:39;;;;;;;;;;;;;;;;;;137087;1270;22536;-79
2024/02/27 00:47:40;;;;;;;;;;;;;;;;;;137586;1270;22502;-79
2024/02/27 00:50:41;;;;;;;;;;;;;;;;;;137223;1270;22900;-78
2024/02/27 00:53:42;;;;;;;;;;;;;;;;;;137263;1270;22499;-78
2024/02/27 00:56:43;;;;;;;;;;;;;;;;;;137347;1270;22474;-79
2024/02/27 00:59:44;;;;;;;;;;;;;;;;;;137459;1270;22512;-79
2024/02/27 01:02:45;;;;;;;;;;;;;;;;;;137214;1270;22509;-79
2024/02/27 01:05:46;;;;;;;;;;;;;;;;;;137284;1270;22511;-79
2024/02/27 01:08:47;;;;;;;;;;;;;;;;;;137650;1270;22498;-79
2024/02/27 01:11:49;;;;;;;;;;;;;;;;;;137200;1270;22536;-78
2024/02/27 01:14:50;;;;;;;;;;;;;;;;;;137271;1270;22612;-78
2024/02/27 01:17:51;;;;;;;;;;;;;;;;;;137676;1271;22590;-79
2024/02/27 01:20:52;;;;;;;;;;;;;;;;;;137223;1270;22484;-79
2024/02/27 01:23:53;;;;;;;;;;;;;;;;;;137105;1270;22524;-79
2024/02/27 01:26:54;;;;;;;;;;;;;;;;;;137853;1271;22503;-79
2024/02/27 01:29:55;;;;;;;;;;;;;;;;;;137150;1270;22516;-79
2024/02/27 01:32:57;;;;;;;;;;;;;;;;;;137294;1270;22524;-80
2024/02/27 01:35:58;;;;;;;;;;;;;;;;;;137521;1271;22514;-80
2024/02/27 01:38:59;;;;;;;;;;;;;;;;;;137599;1271;22490;-78
2024/02/27 01:42:00;;;;;;;;;;;;;;;;;;137290;1270;22503;-77
2024/02/27 01:45:01;;;;;;;;;;;;;;;;;;137483;1271;22537;-78
2024/02/27 01:48:03;;;;;;;;;;;;;;;;;;137753;1271;22565;-78
2024/02/27 01:51:04;;;;;;;;;;;;;;;;;;137379;1270;22616;-78
2024/02/27 01:54:05;;;;;;;;;;;;;;;;;;137187;1270;22510;-80
2024/02/27 01:57:06;;;;;;;;;;;;;;;;;;137606;1266;22510;-79
2024/02/27 02:00:09;;;;;;;;;;;;;;;;;;137265;1271;22529;-79
2024/02/27 02:03:11;;;;;;;;;;;;;;;;;;137248;1271;22562;-79
2024/02/27 02:06:12;;;;;;;;;;;;;;;;;;137813;1270;22546;-80
2024/02/27 02:09:13;;;;;;;;;;;;;;;;;;137099;1271;22551;-79
2024/02/27 02:12:15;;;;;;;;;;;;;;;;;;137302;1271;22496;-79
2024/02/27 02:15:16;;;;;;;;;;;;;;;;;;137797;1271;22519;-79
2024/02/27 02:18:17;;;;;;;;;;;;;;;;;;137467;1270;23305;-79
2024/02/27 02:21:18;;;;;;;;;;;;;;;;;;137353;1270;22497;-79
2024/02/27 02:24:19;;;;;;;;;;;;;;;;;;137589;1271;22551;-79
2024/02/27 02:27:23;;;;;;;;;;;;;;;;;;137636;1271;22888;-78
2024/02/27 02:30:24;;;;;;;;;;;;;;;;;;137402;1270;22629;-80
2024/02/27 02:33:25;;;;;;;;;;;;;;;;;;137336;1270;22502;-79
2024/02/27 02:36:26;;;;;;;;;;;;;;;;;;137901;1270;22500;-80
2024/02/27 02:39:28;;;;;;;;;;;;;;;;;;137318;1270;22541;-80
2024/02/27 02:42:29;;;;;;;;;;;;;;;;;;137209;1271;22973;-80
2024/02/27 02:45:30;;;;;;;;;;;;;;;;;;137652;1270;22809;-80
2024/02/27 02:48:31;;;;;;;;;;;;;;;;;;137323;1270;22536;-77
2024/02/27 02:51:32;;;;;;;;;;;;;;;;;;137283;1270;22494;-80
2024/02/27 02:54:33;;;;;;;;;;;;;;;;;;137712;1270;22641;-79
2024/02/27 02:57:34;;;;;;;;;;;;;;;;;;137420;1270;22911;-79
2024/02/27 03:00:35;;;;;;;;;;;;;;;;;;137149;1270;22526;-81
2024/02/27 03:03:36;;;;;;;;;;;;;;;;;;137527;1270;23019;-81
2024/02/27 03:06:38;;;;;;;;;;;;;;;;;;137418;1270;22551;-81
2024/02/27 03:09:39;;;;;;;;;;;;;;;;;;137213;1270;22542;-81
2024/02/27 03:12:40;;;;;;;;;;;;;;;;;;137167;1271;24261;-80
2024/02/27 03:15:41;;;;;;;;;;;;;;;;;;137870;1270;22552;-82
2024/02/27 03:18:42;;;;;;;;;;;;;;;;;;137189;1271;22508;-79
2024/02/27 03:21:43;;;;;;;;;;;;;;;;;;137325;1271;24881;-80
2024/02/27 03:24:44;;;;;;;;;;;;;;;;;;137792;1270;22563;-81
2024/02/27 03:27:45;;;;;;;;;;;;;;;;;;137275;1270;22514;-83
2024/02/27 03:30:47;;;;;;;;;;;;;;;;;;137260;1270;22509;-81
2024/02/27 03:33:48;;;;;;;;;;;;;;;;;;137731;1270;22642;-80
2024/02/27 03:36:49;;;;;;;;;;;;;;;;;;137356;1270;22510;-80
2024/02/27 03:39:50;;;;;;;;;;;;;;;;;;137202;1270;22537;-81
2024/02/27 03:42:51;;;;;;;;;;;;;;;;;;137388;1271;22537;-82
2024/02/27 03:45:52;;;;;;;;;;;;;;;;;;137496;1270;22536;-81
2024/02/27 03:48:53;;;;;;;;;;;;;;;;;;137298;1270;22536;-82
2024/02/27 03:51:56;;;;;;;;;;;;;;;;;;137289;1270;22532;-81
2024/02/27 03:54:57;;;;;;;;;;;;;;;;;;137827;1270;22859;-81
2024/02/27 03:57:58;;;;;;;;;;;;;;;;;;137322;1270;22501;-81
2024/02/27 04:00:59;;;;;;;;;;;;;;;;;;137197;1270;22564;-79
2024/02/27 04:04:00;;;;;;;;;;;;;;;;;;137652;1270;23063;-80
2024/02/27 04:07:01;;;;;;;;;;;;;;;;;;137189;1270;22526;-81
2024/02/27 04:10:02;;;;;;;;;;;;;;;;;;137275;1270;22514;-81
2024/02/27 04:13:04;;;;;;;;;;;;;;;;;;137527;1271;22739;-81
2024/02/27 04:16:05;;;;;;;;;;;;;;;;;;137454;1270;22497;-81
2024/02/27 04:19:06;;;;;;;;;;;;;;;;;;137171;1270;22540;-81
2024/02/27 04:22:07;;;;;;;;;;;;;;;;;;137436;1271;22514;-80
2024/02/27 04:25:08;;;;;;;;;;;;;;;;;;137630;1270;23006;-81
2024/02/27 04:28:09;;;;;;;;;;;;;;;;;;137301;1271;22531;-81
2024/02/27 04:31:10;;;;;;;;;;;;;;;;;;137267;1266;24203;-80
2024/02/27 04:34:11;;;;;;;;;;;;;;;;;;137856;1271;22499;-81
2024/02/27 04:37:12;;;;;;;;;;;;;;;;;;137555;1270;22495;-81
2024/02/27 04:40:14;;;;;;;;;;;;;;;;;;137561;1270;22538;-81
2024/02/27 04:43:15;;;;;;;;;;;;;;;;;;138003;1271;22277;-79
2024/02/27 04:46:16;;;;;;;;;;;;;;;;;;137489;1270;22494;-79
2024/02/27 04:49:17;;;;;;;;;;;;;;;;;;137543;1271;22521;-79
2024/02/27 04:52:18;;;;;;;;;;;;;;;;;;137743;1260;22754;-81
2024/02/27 04:55:19;;;;;;;;;;;;;;;;;;137257;1270;22483;-81
2024/02/27 04:58:21;;;;;;;;;;;;;;;;;;137377;1270;22492;-80
2024/02/27 05:01:23;;;;;;;;;;;;;;;;;;137508;1264;22549;-80
2024/02/27 05:04:24;;;;;;;;;;;;;;;;;;137401;1267;22538;-78
2024/02/27 05:07:26;;;;;;;;;;;;;;;;;;137625;1270;22918;-79
2024/02/27 05:10:27;;;;;;;;;;;;;;;;;;137826;1267;22781;-79
2024/02/27 05:13:28;;;;;;;;;;;;;;;;;;137674;1271;22930;-80
2024/02/27 05:16:29;;;;;;;;;;;;;;;;;;137443;1270;22507;-80
2024/02/27 05:19:30;;;;;;;;;;;;;;;;;;137875;1270;22340;-79
2024/02/27 05:22:32;;;;;;;;;;;;;;;;;;137762;1270;22394;-78
2024/02/27 05:25:33;;;;;;;;;;;;;;;;;;137170;1271;22485;-80
2024/02/27 05:28:36;;;;;;;;;;;;;;;;;;137152;1270;22500;-80
2024/02/27 05:31:37;;;;;;;;;;;;;;;;;;137829;1270;22409;-81
2024/02/27 05:34:38;;;;;;;;;;;;;;;;;;137855;1270;22291;-82
2024/02/27 05:37:40;;;;;;;;;;;;;;;;;;137385;1270;22502;-81
2024/02/27 05:40:44;;;;;;;;;;;;;;;;;;137852;1264;22272;-82
2024/02/27 05:44:12;;;;;;;;;;;;;;;;;;137762;1270;22484;-81
2024/02/27 05:47:13;;;;;;;;;;;;;;;;;;137822;1270;22392;-80
2024/02/27 05:50:14;;;;;;;;;;;;;;;;;;137371;1270;22487;-82
2024/02/27 05:53:15;;;;;;;;;;;;;;;;;;137806;1270;23064;-81
2024/02/27 05:56:20;;;;;;;;;;;;;;;;;;137809;1271;22308;-79
2024/02/27 05:59:21;;;;;;;;;;;;;;;;;;137781;1270;22335;-81
2024/02/27 06:02:23;;;;;;;;;;;;;;;;;;137812;1270;22390;-82
2024/02/27 06:05:24;;;;;;;;;;;;;;;;;;137820;1270;22326;-80
2024/02/27 06:08:25;;;;;;;;;;;;;;;;;;137777;1270;22393;-80
2024/02/27 06:11:26;;;;;;;;;;;;;;;;;;137782;1260;22340;-80
2024/02/27 06:14:28;;;;;;;;;;;;;;;;;;137782;1271;22415;-80
2024/02/27 06:17:29;;;;;;;;;;;;;;;;;;137780;1270;22336;-81
2024/02/27 06:23:52;;;;;;;;;;;;;;;;;;137604;1270;22435;-81
2024/02/27 06:26:53;;;;;;;;;;;;;;;;;;137776;1270;22972;-81
2024/02/27 06:29:54;;;;;;;;;;;;;;;;;;137796;1271;22352;-80
2024/02/27 06:32:55;;;;;;;;;;;;;;;;;;137849;1270;22653;-78
2024/02/27 06:35:56;;;;;;;;;;;;;;;;;;137760;1270;22880;-82
2024/02/27 06:38:57;;;;;;;;;;;;;;;;;;137805;1264;22372;-80
2024/02/27 06:41:58;;;;;;;;;;;;;;;;;;137778;1270;22967;-80
2024/02/27 06:45:00;;;;;;;;;;;;;;;;;;137740;1270;22338;-81
2024/02/27 06:48:01;;;;;;;;;;;;;;;;;;137724;1270;22357;-80
2024/02/27 06:51:06;;;;;;;;;;;;;;;;;;137772;1270;22354;-80
2024/02/27 06:54:07;;;;;;;;;;;;;;;;;;137822;1270;22828;-81
2024/02/27 06:57:09;;;;;;;;;;;;;;;;;;137778;1270;22387;-82
2024/02/27 07:00:10;;;;;;;;;;;;;;;;;;137808;1270;22328;-82
2024/02/27 07:03:11;;;;;;;;;;;;;;;;;;137776;1270;22370;-82
2024/02/27 07:06:13;;;;;;;;;;;;;;;;;;137790;1270;22354;-81
2024/02/27 07:09:14;;;;;;;;;;;;;;;;;;137761;1270;22775;-81
2024/02/27 07:12:15;;;;;;;;;;;;;;;;;;137795;1271;22369;-81
2024/02/27 07:15:19;;;;;;;;;;;;;;;;;;137723;1270;22973;-86
2024/02/27 07:18:22;;;;;;;;;;;;;;;;;;137691;1264;22520;-85
2024/02/27 07:21:23;;;;;;;;;;;;;;;;;;137307;1270;22548;-82
2024/02/27 07:24:24;;;;;;;;;;;;;;;;;;137730;1270;22550;-84
2024/02/27 07:27:26;;;;;;;;;;;;;;;;;;137481;1270;22564;-85
2024/02/27 07:30:27;;;;;;;;;;;;;;;;;;137247;1270;22784;-88
2024/02/27 07:33:28;;;;;;;;;;;;;;;;;;137841;1270;22463;-84
2024/02/27 07:36:30;;;;;;;;;;;;;;;;;;137662;1257;22533;-84
2024/02/27 07:39:31;;;;;;;;;;;;;;;;;;137583;1270;22533;-85
2024/02/27 07:42:33;;;;;;;;;;;;;;;;;;137327;1270;23186;-86
2024/02/27 07:45:51;;;;;;;;;;;;;;;;;;137281;1270;22564;-84
2024/02/27 07:48:57;;;;;;;;;;;;;;;;;;137423;1270;22543;-85
2024/02/27 07:52:05;;;;;;;;;;;;;;;;;;137221;1270;22557;-85
2024/02/27 07:55:09;;;;;;;;;;;;;;;;;;137048;1270;22533;-85
2024/02/27 07:58:15;;;;;;;;;;;;;;;;;;136913;1270;22572;-86
2024/02/27 08:01:16;;;;;;;;;;;;;;;;;;137456;1270;22538;-86
2024/02/27 08:04:18;;;;;;;;;;;;;;;;;;137719;1270;23066;-85
2024/02/27 08:07:19;;;;;;;;;;;;;;;;;;137193;1270;22539;-82
2024/02/27 08:10:20;;;;;;;;;;;;;;;;;;137692;1270;22979;-78
2024/02/27 08:13:22;;;;;;;;;;;;;;;;;;137279;1270;22540;-83
2024/02/27 08:16:23;;;;;;;;;;;;;;;;;;137379;1270;22517;-81
2024/02/27 08:19:24;;;;;;;;;;;;;;;;;;137829;1270;22498;-84
2024/02/27 08:22:26;;;;;;;;;;;;;;;;;;137007;1270;22531;-86
2024/02/27 08:25:28;;;;;;;;;;;;;;;;;;137416;1270;22552;-84
2024/02/27 08:28:33;;;;;;;;;;;;;;;;;;137523;1266;22489;-85
2024/02/27 08:31:43;;;;;;;;;;;;;;;;;;137155;1270;22527;-85
2024/02/27 08:34:44;;;;;;;;;;;;;;;;;;137853;1270;22521;-85
2024/02/27 08:37:49;;;;;;;;;;;;;;;;;;137799;1270;22403;-83
2024/02/27 08:40:56;;;;;;;;;;;;;;;;;;137833;1270;22720;-85
2024/02/27 08:44:01;;;;;;;;;;;;;;;;;;137329;1270;22951;-83
2024/02/27 08:47:03;;;;;;;;;;;;;;;;;;137293;1270;22650;-83
2024/02/27 08:50:04;;;;;;;;;;;;;;;;;;137718;1270;22557;-84
2024/02/27 08:53:06;;;;;;;;;;;;;;;;;;137865;1267;22543;-85
2024/02/27 08:56:07;;;;;;;;;;;;;;;;;;137897;1257;22516;-85
2024/02/27 08:59:08;;;;;;;;;;;;;;;;;;137796;1270;22325;-84
2024/02/27 09:02:09;;;;;;;;;;;;;;;;;;137819;1270;22284;-84
2024/02/27 09:05:11;;;;;;;;;;;;;;;;;;137846;1270;22342;-84
2024/02/27 09:08:12;;;;;;;;;;;;;;;;;;137722;1270;22314;-83
2024/02/27 09:11:15;;;;;;;;;;;;;;;;;;137773;1270;22269;-86
2024/02/27 09:14:16;;;;;;;;;;;;;;;;;;137758;1270;22382;-85
2024/02/27 09:17:17;;;;;;;;;;;;;;;;;;137792;1270;22271;-83
2024/02/27 09:20:19;;;;;;;;;;;;;;;;;;137784;1270;22460;-83
2024/02/27 09:23:20;;;;;;;;;;;;;;;;;;137793;1270;22321;-82
2024/02/27 09:26:21;;;;;;;;;;;;;;;;;;137760;1270;22298;-83
2024/02/27 09:29:22;;;;;;;;;;;;;;;;;;137816;1270;22291;-83
2024/02/27 09:32:23;;;;;;;;;;;;;;;;;;137740;1270;22920;-84
2024/02/27 09:35:25;;;;;;;;;;;;;;;;;;137801;1270;22352;-84
2024/02/27 09:38:26;;;;;;;;;;;;;;;;;;137829;1270;22292;-84
2024/02/27 09:41:27;;;;;;;;;;;;;;;;;;137567;1270;322837;-84
2024/02/27 09:44:29;;;;;;;;;;;;;;;;;;137508;1270;22643;-85
2024/02/27 09:47:36;;;;;;;;;;;;;;;;;;137517;1270;22564;-86
2024/02/27 09:50:37;;;;;;;;;;;;;;;;;;137767;1270;22455;-84
2024/02/27 09:53:38;;;;;;;;;;;;;;;;;;137676;1270;22470;-84
2024/02/27 09:56:40;;;;;;;;;;;;;;;;;;137774;1270;22658;-82
2024/02/27 09:59:41;;;;;;;;;;;;;;;;;;137794;1270;22344;-82
2024/02/27 10:02:42;;;;;;;;;;;;;;;;;;137816;1270;22740;-82
2024/02/27 10:05:43;;;;;;;;;;;;;;;;;;137829;1270;22887;-82
2024/02/27 10:08:44;;;;;;;;;;;;;;;;;;137816;1270;22268;-81
2024/02/27 10:11:46;;;;;;;;;;;;;;;;;;137826;1270;22536;-83
2024/02/27 10:14:47;;;;;;;;;;;;;;;;;;137827;1270;22302;-83
2024/02/27 10:17:48;;;;;;;;;;;;;;;;;;137832;1270;22466;-85
2024/02/27 10:20:50;;;;;;;;;;;;;;;;;;137791;1270;22329;-83
2024/02/27 10:23:52;;;;;;;;;;;;;;;;;;137866;1270;22362;-81
2024/02/27 10:26:54;;;;;;;;;;;;;;;;;;137827;1270;22752;-83
2024/02/27 10:29:56;;;;;;;;;;;;;;;;;;137852;1270;22543;-86
2024/02/27 10:32:57;;;;;;;;;;;;;;;;;;137564;1270;22984;-85
2024/02/27 10:35:58;;;;;;;;;;;;;;;;;;137496;1270;22559;-83
2024/02/27 10:38:59;;;;;;;;;;;;;;;;;;137602;1270;22557;-83
2024/02/27 10:42:01;;;;;;;;;;;;;;;;;;137458;1270;22519;-86
2024/02/27 10:45:02;;;;;;;;;;;;;;;;;;137893;1270;22633;-83
2024/02/27 10:48:04;;;;;;;;;;;;;;;;;;138000;1270;22381;-84
2024/02/27 10:51:05;;;;;;;;;;;;;;;;;;137803;1270;22913;-81
2024/02/27 10:54:06;;;;;;;;;;;;;;;;;;137449;1270;23086;-81
2024/02/27 10:57:07;;;;;;;;;;;;;;;;;;137927;1270;22390;-83
2024/02/27 11:00:10;;;;;;;;;;;;;;;;;;137882;1270;22442;-83
2024/02/27 11:03:11;;;;;;;;;;;;;;;;;;137822;1270;22708;-83
2024/02/27 11:06:12;;;;;;;;;;;;;;;;;;137835;1270;22318;-84
2024/02/27 11:09:14;;;;;;;;;;;;;;;;;;137811;1270;22773;-83
2024/02/27 11:12:15;;;;;;;;;;;;;;;;;;137641;1270;22472;-83
2024/02/27 11:15:16;;;;;;;;;;;;;;;;;;137369;1270;22543;-82
2024/02/27 11:18:18;;;;;;;;;;;;;;;;;;137801;1270;22297;-81
2024/02/27 11:21:19;;;;;;;;;;;;;;;;;;137763;1270;22338;-80
2024/02/27 11:24:20;;;;;;;;;;;;;;;;;;137808;1263;22306;-82
2024/02/27 11:27:22;;;;;;;;;;;;;;;;;;137859;1270;22336;-83
2024/02/27 11:30:26;;;;;;;;;;;;;;;;;;137813;1270;22371;-82
2024/02/27 11:33:27;;;;;;;;;;;;;;;;;;137546;1270;22482;-84
2024/02/27 11:36:29;;;;;;;;;;;;;;;;;;137906;1270;22318;-84
2024/02/27 11:39:31;;;;;;;;;;;;;;;;;;137808;1270;22405;-83
2024/02/27 11:42:32;;;;;;;;;;;;;;;;;;137891;1270;22331;-82
2024/02/27 11:45:33;;;;;;;;;;;;;;;;;;137902;1259;22251;-83
2024/02/27 11:48:35;;;;;;;;;;;;;;;;;;137885;1270;22323;-79
2024/02/27 11:51:36;;;;;;;;;;;;;;;;;;137831;1270;22628;-82
2024/02/27 11:54:39;;;;;;;;;;;;;;;;;;137807;1270;22341;-80
2024/02/27 11:57:40;;;;;;;;;;;;;;;;;;137856;1270;22325;-83
2024/02/27 12:00:42;;;;;;;;;;;;;;;;;;137886;1270;22846;-83
2024/02/27 12:03:43;;;;;;;;;;;;;;;;;;137574;1270;22509;-84
2024/02/27 12:06:44;;;;;;;;;;;;;;;;;;137750;1270;22503;-81
2024/02/27 12:09:46;;;;;;;;;;;;;;;;;;137858;1270;22370;-84
2024/02/27 12:12:47;;;;;;;;;;;;;;;;;;137643;1270;22505;-83
2024/02/27 12:15:48;;;;;;;;;;;;;;;;;;137808;1270;22317;-82
2024/02/27 12:18:49;;;;;;;;;;;;;;;;;;137790;1270;22322;-84
2024/02/27 12:21:50;;;;;;;;;;;;;;;;;;137844;1264;22299;-82
2024/02/27 12:24:52;;;;;;;;;;;;;;;;;;137654;1270;22983;-83
2024/02/27 12:27:53;;;;;;;;;;;;;;;;;;137571;1270;22537;-81
2024/02/27 12:30:54;;;;;;;;;;;;;;;;;;137788;1270;22389;-83
2024/02/27 12:33:55;;;;;;;;;;;;;;;;;;137809;1270;22359;-83
2024/02/27 12:36:57;;;;;;;;;;;;;;;;;;137873;1262;22347;-83
2024/02/27 12:39:58;;;;;;;;;;;;;;;;;;137918;1270;22304;-80
2024/02/27 12:43:00;;;;;;;;;;;;;;;;;;137436;1270;23150;-82
2024/02/27 12:46:01;;;;;;;;;;;;;;;;;;137836;1270;22261;-82
2024/02/27 12:49:02;;;;;;;;;;;;;;;;;;137409;1266;22500;-82
2024/02/27 12:52:03;;;;;;;;;;;;;;;;;;137843;1270;22343;-83
2024/02/27 12:55:05;;;;;;;;;;;;;;;;;;137858;1264;22332;-81
2024/02/27 12:58:06;;;;;;;;;;;;;;;;;;137834;1270;22390;-82
2024/02/27 13:01:07;;;;;;;;;;;;;;;;;;137268;1270;22973;-83
2024/02/27 13:04:09;;;;;;;;;;;;;;;;;;137779;1270;22517;-84
2024/02/27 13:07:10;;;;;;;;;;;;;;;;;;137722;1270;22542;-83
2024/02/27 13:10:11;;;;;;;;;;;;;;;;;;137784;1256;22538;-84
2024/02/27 13:13:13;;;;;;;;;;;;;;;;;;137838;1255;22367;-83
2024/02/27 13:16:15;;;;;;;;;;;;;;;;;;137829;1270;23750;-80
2024/02/27 13:19:16;;;;;;;;;;;;;;;;;;137737;1270;22675;-83
2024/02/27 13:22:18;;;;;;;;;;;;;;;;;;137780;1270;22327;-83
2024/02/27 13:25:19;;;;;;;;;;;;;;;;;;137823;1270;22321;-81
2024/02/27 13:28:20;;;;;;;;;;;;;;;;;;137736;1270;22301;-80
2024/02/27 13:31:21;;;;;;;;;;;;;;;;;;137750;1270;22377;-80
2024/02/27 13:34:23;;;;;;;;;;;;;;;;;;137811;1270;22324;-79
2024/02/27 13:37:24;;;;;;;;;;;;;;;;;;137819;1270;22320;-79
2024/02/27 13:40:25;;;;;;;;;;;;;;;;;;137814;1270;22798;-79
2024/02/27 13:43:27;;;;;;;;;;;;;;;;;;137866;1270;22458;-79
2024/02/27 13:46:28;;;;;;;;;;;;;;;;;;137867;1270;22330;-79
2024/02/27 13:49:29;;;;;;;;;;;;;;;;;;137155;1259;22495;-79
2024/02/27 13:52:30;;;;;;;;;;;;;;;;;;137876;1270;22762;-79
2024/02/27 13:55:31;;;;;;;;;;;;;;;;;;137811;1270;22895;-79
2024/02/27 13:58:33;;;;;;;;;;;;;;;;;;137058;1270;22951;-80
2024/02/27 14:01:34;;;;;;;;;;;;;;;;;;137875;1270;22379;-79
2024/02/27 14:04:36;;;;;;;;;;;;;;;;;;137768;1270;22517;-79
2024/02/27 14:07:37;;;;;;;;;;;;;;;;;;136973;1270;22495;-80
2024/02/27 14:10:38;;;;;;;;;;;;;;;;;;136981;1270;22504;-80
2024/02/27 14:13:40;;;;;;;;;;;;;;;;;;137889;1270;22343;-80
2024/02/27 14:16:41;;;;;;;;;;;;;;;;;;137992;1270;22265;-78
2024/02/27 14:19:42;;;;;;;;;;;;;;;;;;137892;1270;22508;-78
2024/02/27 14:22:43;;;;;;;;;;;;;;;;;;137960;1270;22332;-78
2024/02/27 14:25:44;;;;;;;;;;;;;;;;;;137951;1270;22337;-79
2024/02/27 14:28:45;;;;;;;;;;;;;;;;;;137939;1270;22416;-79
2024/02/27 14:31:46;;;;;;;;;;;;;;;;;;137898;1270;22325;-78
2024/02/27 14:34:48;;;;;;;;;;;;;;;;;;137830;1270;22324;-79
2024/02/27 14:37:49;;;;;;;;;;;;;;;;;;137813;1270;22310;-79
2024/02/27 14:40:50;;;;;;;;;;;;;;;;;;137496;1270;22546;-80
2024/02/27 14:43:53;;;;;;;;;;;;;;;;;;137908;1270;23028;-78
2024/02/27 14:46:54;;;;;;;;;;;;;;;;;;137880;1270;22318;-77
2024/02/27 14:49:55;;;;;;;;;;;;;;;;;;137878;1270;23352;-79
2024/02/27 14:52:57;;;;;;;;;;;;;;;;;;137838;1270;22628;-79
2024/02/27 14:55:58;;;;;;;;;;;;;;;;;;137867;1270;22343;-79
2024/02/27 14:58:59;;;;;;;;;;;;;;;;;;137850;1270;22423;-80
2024/02/27 15:02:01;;;;;;;;;;;;;;;;;;137838;1270;22861;-80
2024/02/27 15:05:02;;;;;;;;;;;;;;;;;;137898;1270;22307;-80
2024/02/27 15:08:03;;;;;;;;;;;;;;;;;;137803;1270;22319;-81
2024/02/27 15:11:04;;;;;;;;;;;;;;;;;;137872;1270;22305;-79
2024/02/27 15:14:05;;;;;;;;;;;;;;;;;;137906;1270;22298;-80
2024/02/27 15:17:07;;;;;;;;;;;;;;;;;;137886;1270;23249;-81
2024/02/27 15:20:08;;;;;;;;;;;;;;;;;;137769;1259;22501;-81
2024/02/27 15:23:10;;;;;;;;;;;;;;;;;;137844;1270;22293;-82
2024/02/27 15:26:11;;;;;;;;;;;;;;;;;;137913;1270;22325;-81
2024/02/27 15:29:12;;;;;;;;;;;;;;;;;;137919;1270;22808;-79
2024/02/27 15:32:13;;;;;;;;;;;;;;;;;;137871;1266;22292;-79
2024/02/27 15:35:14;;;;;;;;;;;;;;;;;;137924;1270;23046;-81
2024/02/27 15:38:15;;;;;;;;;;;;;;;;;;137850;1270;22336;-82
2024/02/27 15:41:17;;;;;;;;;;;;;;;;;;137897;1270;22318;-82
2024/02/27 15:44:18;;;;;;;;;;;;;;;;;;137750;1270;22522;-81
2024/02/27 15:47:19;;;;;;;;;;;;;;;;;;137864;1270;22416;-81
2024/02/27 15:50:20;;;;;;;;;;;;;;;;;;137897;1270;22271;-81
2024/02/27 15:53:21;;;;;;;;;;;;;;;;;;137871;1270;22349;-81
2024/02/27 15:56:23;;;;;;;;;;;;;;;;;;137873;1270;22330;-82
2024/02/27 15:59:24;;;;;;;;;;;;;;;;;;137908;1270;22968;-80
2024/02/27 16:02:25;;;;;;;;;;;;;;;;;;137952;1270;22427;-82
2024/02/27 16:05:27;;;;;;;;;;;;;;;;;;137952;1270;22343;-81
2024/02/27 16:08:28;;;;;;;;;;;;;;;;;;137935;1270;22624;-81
2024/02/27 16:11:29;;;;;;;;;;;;;;;;;;137960;1270;22314;-80
2024/02/27 16:14:30;;;;;;;;;;;;;;;;;;137990;1270;22735;-80
2024/02/27 16:17:32;;;;;;;;;;;;;;;;;;137903;1270;22898;-81
2024/02/27 16:20:35;;;;;;;;;;;;;;;;;;138057;1270;22259;-82
2024/02/27 16:23:36;;;;;;;;;;;;;;;;;;137903;1270;22892;-82
2024/02/27 16:26:38;;;;;;;;;;;;;;;;;;137450;1270;22836;-81
2024/02/27 16:29:39;;;;;;;;;;;;;;;;;;137889;1270;22498;-81
2024/02/27 16:32:41;;;;;;;;;;;;;;;;;;137854;1270;22335;-82
2024/02/27 16:35:42;;;;;;;;;;;;;;;;;;137413;1270;22650;-83
2024/02/27 16:38:43;;;;;;;;;;;;;;;;;;137760;1270;22500;-82
2024/02/27 16:41:44;;;;;;;;;;;;;;;;;;137894;1270;22391;-84
2024/02/27 16:44:46;;;;;;;;;;;;;;;;;;137296;1270;23311;-81
2024/02/27 16:47:47;;;;;;;;;;;;;;;;;;137863;1270;22395;-82
2024/02/27 16:50:49;;;;;;;;;;;;;;;;;;137637;1270;22515;-82
2024/02/27 16:53:50;;;;;;;;;;;;;;;;;;137663;1270;22527;-83
2024/02/27 16:56:51;;;;;;;;;;;;;;;;;;137098;1270;22495;-82
2024/02/27 16:59:53;;;;;;;;;;;;;;;;;;137383;1270;22502;-83
2024/02/27 17:02:54;;;;;;;;;;;;;;;;;;137666;1270;22529;-82
2024/02/27 17:05:56;;;;;;;;;;;;;;;;;;137233;1270;22543;-83
2024/02/27 17:08:57;;;;;;;;;;;;;;;;;;137109;1271;22680;-82
2024/02/27 17:11:59;;;;;;;;;;;;;;;;;;137870;1270;22488;-80
2024/02/27 17:15:00;;;;;;;;;;;;;;;;;;137361;1270;22492;-82
2024/02/27 17:18:01;;;;;;;;;;;;;;;;;;137338;1270;22505;-83
2024/02/27 17:21:03;;;;;;;;;;;;;;;;;;137870;1268;22283;-83
2024/02/27 17:24:04;;;;;;;;;;;;;;;;;;137659;1270;22522;-83
2024/02/27 17:27:05;;;;;;;;;;;;;;;;;;137366;1270;22494;-81
2024/02/27 17:30:07;;;;;;;;;;;;;;;;;;137484;1270;23271;-81
2024/02/27 17:33:09;;;;;;;;;;;;;;;;;;137622;1270;22507;-82
2024/02/27 17:36:16;;;;;;;;;;;;;;;;;;137321;1270;22574;-82
2024/02/27 17:39:22;;;;;;;;;;;;;;;;;;137382;1270;22546;-80
2024/02/27 17:42:23;;;;;;;;;;;;;;;;;;137840;1270;22312;-80
2024/02/27 17:45:24;;;;;;;;;;;;;;;;;;137436;1270;22501;-81
2024/02/27 17:48:25;;;;;;;;;;;;;;;;;;137243;1270;22494;-82
2024/02/27 17:51:26;;;;;;;;;;;;;;;;;;137667;1270;22529;-81
2024/02/27 17:54:28;;;;;;;;;;;;;;;;;;137566;1270;22512;-80
2024/02/27 17:57:29;;;;;;;;;;;;;;;;;;137403;1271;22675;-79
2024/02/27 18:00:30;;;;;;;;;;;;;;;;;;137459;1271;22449;-81
2024/02/27 18:03:31;;;;;;;;;;;;;;;;;;137860;1271;22969;-80
2024/02/27 18:06:33;;;;;;;;;;;;;;;;;;137663;1271;22492;-81
2024/02/27 18:09:34;;;;;;;;;;;;;;;;;;137821;1270;22528;-82
2024/02/27 18:12:35;;;;;;;;;;;;;;;;;;137930;1271;22358;-81
2024/02/27 18:15:39;;;;;;;;;;;;;;;;;;137229;1271;22542;-82
2024/02/27 18:18:40;;;;;;;;;;;;;;;;;;136996;1266;22531;-81
2024/02/27 18:21:41;;;;;;;;;;;;;;;;;;137828;1270;22497;-82
2024/02/27 18:24:42;;;;;;;;;;;;;;;;;;137587;1259;22979;-82
2024/02/27 18:27:43;;;;;;;;;;;;;;;;;;137454;1270;22513;-81
2024/02/27 18:30:45;;;;;;;;;;;;;;;;;;137443;1270;22530;-81
2024/02/27 18:33:46;;;;;;;;;;;;;;;;;;137687;1270;22642;-82
2024/02/27 18:36:47;;;;;;;;;;;;;;;;;;137203;1270;23015;-82
2024/02/27 18:39:48;;;;;;;;;;;;;;;;;;137476;1271;22530;-81
2024/02/27 18:42:49;;;;;;;;;;;;;;;;;;137886;1270;22520;-82
2024/02/27 18:45:50;;;;;;;;;;;;;;;;;;137327;1270;22528;-82
2024/02/27 18:48:51;;;;;;;;;;;;;;;;;;137376;1270;23005;-83
2024/02/27 18:51:53;;;;;;;;;;;;;;;;;;137931;1270;22487;-82
2024/02/27 18:54:54;;;;;;;;;;;;;;;;;;137433;1270;22567;-82
2024/02/27 18:57:56;;;;;;;;;;;;;;;;;;137352;1270;22510;-82
2024/02/27 19:00:57;;;;;;;;;;;;;;;;;;137643;1271;22505;-83
2024/02/27 19:03:58;;;;;;;;;;;;;;;;;;137450;1271;22873;-83
2024/02/27 19:06:59;;;;;;;;;;;;;;;;;;137443;1270;22801;-84
2024/02/27 19:10:00;;;;;;;;;;;;;;;;;;137612;1271;22516;-82
2024/02/27 19:13:06;;;;;;;;;;;;;;;;;;137770;1270;22502;-83
2024/02/27 19:16:07;;;;;;;;;;;;;;;;;;137385;1270;22520;-82
2024/02/27 19:19:09;;;;;;;;;;;;;;;;;;137201;1271;22535;-81
2024/02/27 19:22:10;;;;;;;;;;;;;;;;;;137847;1270;22503;-81
2024/02/27 19:25:14;;;;;;;;;;;;;;;;;;137228;1271;22532;-82
2024/02/27 19:28:15;;;;;;;;;;;;;;;;;;137295;1270;22498;-81
2024/02/27 19:31:16;;;;;;;;;;;;;;;;;;137864;1270;22359;-83
2024/02/27 19:34:18;;;;;;;;;;;;;;;;;;137588;1270;22478;-81
2024/02/27 19:37:19;;;;;;;;;;;;;;;;;;137392;1271;22485;-82
2024/02/27 19:40:20;;;;;;;;;;;;;;;;;;137523;1270;22958;-84
2024/02/27 19:43:21;;;;;;;;;;;;;;;;;;137680;1271;22523;-83
2024/02/27 19:46:24;;;;;;;;;;;;;;;;;;137352;1266;23027;-81
2024/02/27 19:49:25;;;;;;;;;;;;;;;;;;137291;1270;22625;-84
2024/02/27 19:52:26;;;;;;;;;;;;;;;;;;137660;1270;23024;-82
2024/02/27 19:55:30;;;;;;;;;;;;;;;;;;137272;1270;22505;-82
2024/02/27 19:58:37;;;;;;;;;;;;;;;;;;137122;1271;22963;-83
2024/02/27 20:01:39;;;;;;;;;;;;;;;;;;137611;1270;22547;-82
2024/02/27 20:04:40;;;;;;;;;;;;;;;;;;137186;1271;22625;-81
2024/02/27 20:07:42;;;;;;;;;;;;;;;;;;137117;1270;22486;-82
2024/02/27 20:10:43;;;;;;;;;;;;;;;;;;137565;1271;22526;-82
2024/02/27 20:13:46;;;;;;;;;;;;;;;;;;137503;1271;22978;-81
2024/02/27 20:16:47;;;;;;;;;;;;;;;;;;137217;1270;22573;-82
2024/02/27 20:19:48;;;;;;;;;;;;;;;;;;137372;1271;22515;-83
2024/02/27 20:22:49;;;;;;;;;;;;;;;;;;137678;1270;22503;-82